createdAt,value
2023-04-02T00:02:22.318Z,96397.13
2023-04-02T00:05:16.497Z,96384.75
2023-04-02T00:07:49.095Z,96395.31
2023-04-02T00:10:37.032Z,96392.84
2023-04-02T00:13:18.800Z,96394.66
2023-04-02T00:15:52.009Z,96391.84
2023-04-02T00:18:21.759Z,96388.53
2023-04-02T00:21:16.540Z,96391.19
2023-04-02T00:23:44.505Z,96398.13
2023-04-02T00:26:34.357Z,96391.66
2023-04-02T00:29:02.715Z,96393.47
2023-04-02T00:31:29.952Z,96397.78
2023-04-02T00:33:58.432Z,96398.59
2023-04-02T00:36:30.314Z,96398.44
2023-04-02T00:39:00.255Z,96397.78
2023-04-02T00:41:30.011Z,96399.44
2023-04-02T00:43:58.980Z,96397.63
2023-04-02T00:46:30.913Z,96395.47
2023-04-02T00:49:14.670Z,96402.09
2023-04-02T00:51:46.781Z,96397.94
2023-04-02T00:54:16.817Z,96398.28
2023-04-02T00:56:46.411Z,96402.88
2023-04-02T00:59:35.956Z,96405.22
2023-04-02T01:02:18.714Z,96405.38
2023-04-02T01:05:00.450Z,96402.06
2023-04-02T01:07:37.655Z,96403.06
2023-04-02T01:10:14.917Z,96402.72
2023-04-02T01:12:58.713Z,96401.72
2023-04-02T01:15:53.179Z,96414.09
2023-04-02T01:18:56.873Z,96404.84
2023-04-02T01:21:42.530Z,96403.88
2023-04-02T01:24:13.896Z,96412.94
2023-04-02T01:26:58.780Z,96404.03
2023-04-02T01:29:39.200Z,96408.97
2023-04-02T01:32:10.513Z,96419.22
2023-04-02T01:34:38.170Z,96415.25
2023-04-02T01:37:14.952Z,96422.34
2023-04-02T01:40:13.238Z,96425.19
2023-04-02T01:42:54.665Z,96422.38
2023-04-02T01:45:23.277Z,96429.28
2023-04-02T01:47:51.391Z,96424.66
2023-04-02T01:50:31.713Z,96428.81
2023-04-02T01:53:02.535Z,96429.81
2023-04-02T01:55:42.312Z,96432.09
2023-04-02T01:58:11.656Z,96434.56
2023-04-02T02:00:56.728Z,96427.94
2023-04-02T02:03:23.540Z,96433.91
2023-04-02T02:05:51.252Z,96434.56
2023-04-02T02:09:04.465Z,96435.22
2023-04-02T02:11:33.628Z,96431.59
2023-04-02T02:14:06.549Z,96433.25
2023-04-02T02:16:41.947Z,96437.69
2023-04-02T02:19:23.910Z,96441.47
2023-04-02T02:21:54.258Z,96447.09
2023-04-02T02:24:30.995Z,96441.63
2023-04-02T02:27:37.982Z,96449.38
2023-04-02T02:30:12.536Z,96447.25
2023-04-02T02:32:53.793Z,96448.25
2023-04-02T02:35:29.283Z,96454.50
2023-04-02T02:38:06.517Z,96451.72
2023-04-02T02:40:41.852Z,96457.50
2023-04-02T02:43:12.492Z,96456.00
2023-04-02T02:45:41.539Z,96455.50
2023-04-02T02:48:14.411Z,96468.69
2023-04-02T02:50:42.597Z,96476.78
2023-04-02T02:53:24.217Z,96471.84
2023-04-02T02:55:56.661Z,96474.03
2023-04-02T02:58:31.608Z,96478.13
2023-04-02T03:00:58.434Z,96482.59
2023-04-02T03:03:28.877Z,96479.47
2023-04-02T03:06:02.236Z,96488.69
2023-04-02T03:08:36.956Z,96483.25
2023-04-02T03:11:16.138Z,96492.63
2023-04-02T03:13:49.200Z,96489.31
2023-04-02T03:16:26.209Z,96493.47
2023-04-02T03:19:08.593Z,96500.06
2023-04-02T03:21:53.401Z,96490.78
2023-04-02T03:24:30.614Z,96502.53
2023-04-02T03:27:11.694Z,96503.34
2023-04-02T03:29:46.612Z,96508.34
2023-04-02T03:32:31.466Z,96503.69
2023-04-02T03:35:03.694Z,96518.53
2023-04-02T03:37:42.553Z,96519.69
2023-04-02T03:40:18.380Z,96515.22
2023-04-02T03:42:50.992Z,96524.28
2023-04-02T03:45:24.238Z,96524.19
2023-04-02T03:48:03.141Z,96531.59
2023-04-02T03:50:47.662Z,96530.75
2023-04-02T03:53:14.582Z,96526.66
2023-04-02T03:55:42.865Z,96529.31
2023-04-02T03:58:23.647Z,96536.19
2023-04-02T04:01:17.592Z,96539.34
2023-04-02T04:03:49.832Z,96545.13
2023-04-02T04:06:30.561Z,96539.00
2023-04-02T04:09:11.636Z,96540.50
2023-04-02T04:11:48.734Z,96542.63
2023-04-02T04:14:21.379Z,96545.59
2023-04-02T04:16:54.405Z,96547.03
2023-04-02T04:19:48.575Z,96554.50
2023-04-02T04:22:19.237Z,96555.84
2023-04-02T04:24:47.206Z,96566.88
2023-04-02T04:27:43.890Z,96562.09
2023-04-02T04:30:25.008Z,96563.41
2023-04-02T04:32:58.741Z,96566.50
2023-04-02T04:35:31.371Z,96578.94
2023-04-02T04:38:12.359Z,96573.66
2023-04-02T04:40:50.537Z,96580.50
2023-04-02T04:43:25.050Z,96585.81
2023-04-02T04:45:57.599Z,96583.84
2023-04-02T04:48:39.157Z,96589.44
2023-04-02T04:51:16.429Z,96589.75
2023-04-02T04:53:49.015Z,96588.78
2023-04-02T04:56:20.115Z,96594.06
2023-04-02T04:59:02.547Z,96596.00
2023-04-02T05:01:48.212Z,96597.38
2023-04-02T05:04:25.113Z,96611.22
2023-04-02T05:07:05.128Z,96602.97
2023-04-02T05:09:54.023Z,96602.81
2023-04-02T05:12:29.497Z,96617.47
2023-04-02T05:15:14.496Z,96619.72
2023-04-02T05:17:53.249Z,96621.63
2023-04-02T05:20:40.950Z,96617.81
2023-04-02T05:23:27.296Z,96628.53
2023-04-02T05:26:17.107Z,96632.00
2023-04-02T05:28:53.141Z,96633.19
2023-04-02T05:31:43.209Z,96638.59
2023-04-02T05:34:12.715Z,96642.19
2023-04-02T05:36:40.145Z,96638.06
2023-04-02T05:39:11.492Z,96640.44
2023-04-02T05:41:43.980Z,96646.41
2023-04-02T05:44:26.620Z,96646.25
2023-04-02T05:47:01.771Z,96652.50
2023-04-02T05:49:46.491Z,96653.97
2023-04-02T05:52:20.078Z,96658.59
2023-04-02T05:54:52.472Z,96654.13
2023-04-02T05:57:39.587Z,96659.31
2023-04-02T06:00:18.995Z,96656.00
2023-04-02T06:02:55.115Z,96671.16
2023-04-02T06:05:26.726Z,96677.66
2023-04-02T06:07:59.104Z,96681.41
2023-04-02T06:10:43.145Z,96676.91
2023-04-02T06:13:16.271Z,96686.81
2023-04-02T06:15:43.297Z,96690.09
2023-04-02T06:18:20.650Z,96689.81
2023-04-02T06:20:47.908Z,96700.22
2023-04-02T06:23:41.992Z,96699.19
2023-04-02T06:26:29.978Z,96703.31
2023-04-02T06:29:11.306Z,96703.31
2023-04-02T06:31:48.892Z,96711.09
2023-04-02T06:34:22.172Z,96702.47
2023-04-02T06:36:51.829Z,96712.06
2023-04-02T06:39:23.123Z,96713.88
2023-04-02T06:42:34.893Z,96715.22
2023-04-02T06:45:02.181Z,96730.88
2023-04-02T06:47:42.705Z,96729.25
2023-04-02T06:50:32.091Z,96724.66
2023-04-02T06:53:05.377Z,96736.22
2023-04-02T06:55:51.123Z,96742.47
2023-04-02T06:58:20.471Z,96751.75
2023-04-02T07:00:49.753Z,96754.69
2023-04-02T07:03:31.850Z,96748.38
2023-04-02T07:06:02.251Z,96753.19
2023-04-02T07:08:29.150Z,96753.81
2023-04-02T07:10:56.570Z,96760.75
2023-04-02T07:13:25.017Z,96760.75
2023-04-02T07:15:54.245Z,96767.59
2023-04-02T07:18:30.243Z,96767.84
2023-04-02T07:20:57.659Z,96763.22
2023-04-02T07:23:24.717Z,96766.41
2023-04-02T07:25:54.746Z,96770.31
2023-04-02T07:28:22.945Z,96773.34
2023-04-02T07:30:51.406Z,96782.25
2023-04-02T07:33:23.146Z,96783.53
2023-04-02T07:35:51.781Z,96785.38
2023-04-02T07:38:18.789Z,96784.72
2023-04-02T07:40:45.897Z,96790.66
2023-04-02T07:43:12.920Z,96787.53
2023-04-02T07:45:39.710Z,96795.59
2023-04-02T07:48:14.081Z,96797.41
2023-04-02T07:50:41.637Z,96801.34
2023-04-02T07:53:27.839Z,96803.06
2023-04-02T07:55:54.706Z,96810.31
2023-04-02T07:58:21.686Z,96808.13
2023-04-02T08:00:48.638Z,96811.97
2023-04-02T08:03:16.641Z,96812.88
2023-04-02T08:05:43.610Z,96813.25
2023-04-02T08:08:10.848Z,96819.44
2023-04-02T08:10:37.708Z,96827.75
2023-04-02T08:13:04.470Z,96825.25
2023-04-02T08:15:31.528Z,96830.31
2023-04-02T08:17:58.637Z,96838.19
2023-04-02T08:20:25.791Z,96830.69
2023-04-02T08:22:52.595Z,96845.28
2023-04-02T08:25:19.381Z,96842.53
2023-04-02T08:27:50.038Z,96853.34
2023-04-02T08:30:21.570Z,96848.06
2023-04-02T08:32:48.893Z,96851.69
2023-04-02T08:35:17.106Z,96864.75
2023-04-02T08:37:44.376Z,96860.00
2023-04-02T08:40:34.800Z,96853.63
2023-04-02T08:43:42.866Z,96871.97
2023-04-02T08:46:35.628Z,96869.25
2023-04-02T08:49:27.500Z,96878.09
2023-04-02T08:52:25.668Z,96884.75
2023-04-02T08:54:53.845Z,96875.00
2023-04-02T08:57:40.860Z,96880.53
2023-04-02T09:00:38.097Z,96881.22
2023-04-02T09:03:21.921Z,96884.97
2023-04-02T09:05:51.565Z,96889.22
2023-04-02T09:08:21.862Z,96884.78
2023-04-02T09:11:03.756Z,96892.16
2023-04-02T09:13:34.819Z,96902.59
2023-04-02T09:16:14.912Z,96904.25
2023-04-02T09:18:44.023Z,96900.19
2023-04-02T09:21:42.252Z,96910.31
2023-04-02T09:24:13.479Z,96910.44
2023-04-02T09:26:40.618Z,96914.06
2023-04-02T09:29:13.809Z,96920.78
2023-04-02T09:31:46.424Z,96918.75
2023-04-02T09:34:34.563Z,96925.84
2023-04-02T09:37:19.841Z,96926.00
2023-04-02T09:39:46.983Z,96929.63
2023-04-02T09:42:37.086Z,96932.06
2023-04-02T09:45:21.244Z,96930.88
2023-04-02T09:47:49.356Z,96926.88
2023-04-02T09:50:33.853Z,96931.31
2023-04-02T09:53:30.980Z,96937.06
2023-04-02T09:56:15.157Z,96932.44
2023-04-02T09:58:44.792Z,96935.69
2023-04-02T10:01:41.041Z,96946.50
2023-04-02T10:04:51.475Z,96953.44
2023-04-02T10:07:46.368Z,96954.28
2023-04-02T10:10:21.504Z,96955.78
2023-04-02T10:12:59.788Z,96953.91
2023-04-02T10:15:50.929Z,96958.59
2023-04-02T10:19:20.323Z,96955.66
2023-04-02T10:21:49.453Z,96961.09
2023-04-02T10:24:18.242Z,96963.44
2023-04-02T10:26:53.994Z,96955.53
2023-04-02T10:29:23.577Z,96966.66
2023-04-02T10:32:13.316Z,96961.22
2023-04-02T10:34:51.064Z,96956.91
2023-04-02T10:37:37.464Z,96961.47
2023-04-02T10:40:17.863Z,96967.94
2023-04-02T10:42:55.869Z,96971.94
2023-04-02T10:45:46.520Z,96968.31
2023-04-02T10:48:37.893Z,96973.75
2023-04-02T10:51:14.206Z,96965.69
2023-04-02T10:54:15.262Z,96969.22
2023-04-02T10:56:50.696Z,96978.38
2023-04-02T10:59:23.488Z,96983.66
2023-04-02T11:01:52.890Z,96978.22
2023-04-02T11:04:25.354Z,96983.66
2023-04-02T11:07:07.174Z,96982.38
2023-04-02T11:09:39.360Z,96987.00
2023-04-02T11:12:08.627Z,96986.06
2023-04-02T11:14:36.895Z,96986.06
2023-04-02T11:17:03.776Z,96983.75
2023-04-02T11:19:32.915Z,96991.66
2023-04-02T11:22:20.577Z,96991.00
2023-04-02T11:24:52.745Z,96989.41
2023-04-02T11:27:31.568Z,96991.22
2023-04-02T11:30:18.825Z,96996.66
2023-04-02T11:32:49.820Z,96988.34
2023-04-02T11:35:31.583Z,96997.84
2023-04-02T11:38:22.961Z,97004.22
2023-04-02T11:40:58.149Z,97008.53
2023-04-02T11:43:33.899Z,97000.31
2023-04-02T11:46:23.769Z,97014.13
2023-04-02T11:48:50.822Z,97015.78
2023-04-02T11:51:21.373Z,97017.59
2023-04-02T11:53:50.368Z,97015.25
2023-04-02T11:56:37.504Z,97021.91
2023-04-02T11:59:26.673Z,97033.06
2023-04-02T12:02:13.524Z,97035.84
2023-04-02T12:05:01.479Z,97044.75
2023-04-02T12:07:56.969Z,97045.34
2023-04-02T12:10:32.508Z,97052.28
2023-04-02T12:12:59.295Z,97056.44
2023-04-02T12:15:38.343Z,97065.91
2023-04-02T12:18:12.794Z,97065.06
2023-04-02T12:20:47.902Z,97064.25
2023-04-02T12:23:36.016Z,97074.66
2023-04-02T12:26:07.492Z,97072.03
2023-04-02T12:28:38.349Z,97070.34
2023-04-02T12:31:08.370Z,97074.81
2023-04-02T12:33:39.878Z,97074.66
2023-04-02T12:36:19.515Z,97082.34
2023-04-02T12:38:47.538Z,97082.19
2023-04-02T12:41:27.304Z,97084.84
2023-04-02T12:43:59.433Z,97088.31
2023-04-02T12:46:27.562Z,97082.03
2023-04-02T12:49:05.219Z,97085.53
2023-04-02T12:51:32.276Z,97089.16
2023-04-02T12:53:59.070Z,97090.13
2023-04-02T12:56:26.072Z,97090.28
2023-04-02T12:59:00.453Z,97092.78
2023-04-02T13:01:29.405Z,97099.72
2023-04-02T13:04:08.285Z,97105.19
2023-04-02T13:06:36.539Z,97103.06
2023-04-02T13:09:06.948Z,97097.78
2023-04-02T13:11:36.314Z,97098.59
2023-04-02T13:14:05.351Z,97106.69
2023-04-02T13:16:40.979Z,97105.72
2023-04-02T13:19:10.528Z,97110.16
2023-04-02T13:21:37.164Z,97109.19
2023-04-02T13:24:04.300Z,97108.50
2023-04-02T13:26:31.330Z,97116.81
2023-04-02T13:29:17.942Z,97126.44
2023-04-02T13:31:44.768Z,97124.63
2023-04-02T13:34:12.101Z,97121.97
2023-04-02T13:36:38.834Z,97123.63
2023-04-02T13:39:06.259Z,97128.78
2023-04-02T13:41:40.324Z,97119.88
2023-04-02T13:44:07.248Z,97127.66
2023-04-02T13:46:34.912Z,97128.34
2023-04-02T13:49:02.142Z,97134.75
2023-04-02T13:51:40.185Z,97133.47
2023-04-02T13:54:14.071Z,97137.09
2023-04-02T13:56:41.542Z,97140.72
2023-04-02T13:59:08.344Z,97142.69
2023-04-02T14:01:35.324Z,97149.66
2023-04-02T14:04:02.710Z,97156.75
2023-04-02T14:07:02.710Z,97158.88
2023-04-02T14:09:54.036Z,97167.50
2023-04-02T14:12:58.581Z,97171.94
2023-04-02T14:15:27.957Z,97172.78
2023-04-02T14:18:06.884Z,97179.75
2023-04-02T14:21:04.644Z,97182.38
2023-04-02T14:24:07.356Z,97183.06
2023-04-02T14:27:02.029Z,97192.69
2023-04-02T14:29:45.737Z,97198.13
2023-04-02T14:32:24.094Z,97191.16
2023-04-02T14:35:09.457Z,97200.91
2023-04-02T14:37:48.515Z,97194.78
2023-04-02T14:40:46.637Z,97192.28
2023-04-02T14:43:19.665Z,97199.09
2023-04-02T14:46:04.735Z,97204.41
2023-04-02T14:48:56.751Z,97212.34
2023-04-02T14:51:41.764Z,97211.50
2023-04-02T14:54:30.238Z,97217.78
2023-04-02T14:57:21.632Z,97214.28
2023-04-02T14:59:57.519Z,97220.56
2023-04-02T15:02:36.127Z,97224.03
2023-04-02T15:05:16.635Z,97230.16
2023-04-02T15:08:25.994Z,97232.69
2023-04-02T15:11:18.973Z,97237.28
2023-04-02T15:13:52.869Z,97235.31
2023-04-02T15:16:22.934Z,97235.31
2023-04-02T15:18:52.666Z,97248.56
2023-04-02T15:21:19.306Z,97250.38
2023-04-02T15:24:04.234Z,97253.00
2023-04-02T15:26:41.312Z,97250.22
2023-04-02T15:29:29.326Z,97259.13
2023-04-02T15:32:18.520Z,97261.94
2023-04-02T15:34:52.641Z,97263.75
2023-04-02T15:38:16.706Z,97266.53
2023-04-02T15:40:50.235Z,97279.63
2023-04-02T15:43:29.047Z,97278.78
2023-04-02T15:46:13.464Z,97280.59
2023-04-02T15:48:59.098Z,97281.44
2023-04-02T15:51:46.400Z,97286.72
2023-04-02T15:54:32.073Z,97297.31
2023-04-02T15:57:17.613Z,97299.13
2023-04-02T16:00:02.512Z,97299.94
2023-04-02T16:03:02.709Z,97308.72
2023-04-02T16:06:13.024Z,97320.28
2023-04-02T16:09:07.857Z,97326.28
2023-04-02T16:11:34.694Z,97330.03
2023-04-02T16:14:09.680Z,97326.72
2023-04-02T16:16:37.124Z,97328.38
2023-04-02T16:19:04.034Z,97336.84
2023-04-02T16:21:44.643Z,97347.59
2023-04-02T16:24:12.824Z,97344.81
2023-04-02T16:26:52.865Z,97350.38
2023-04-02T16:29:55.439Z,97361.09
2023-04-02T16:32:25.050Z,97356.66
2023-04-02T16:35:32.401Z,97369.03
2023-04-02T16:37:58.256Z,97376.28
2023-04-02T16:41:07.070Z,97375.31
2023-04-02T16:43:45.051Z,97385.91
2023-04-02T16:46:40.831Z,97389.25
2023-04-02T16:49:27.899Z,97395.66
2023-04-02T16:52:23.045Z,97399.97
2023-04-02T16:54:49.672Z,97404.41
2023-04-02T16:57:25.106Z,97407.06
2023-04-02T17:00:01.734Z,97407.22
2023-04-02T17:02:43.060Z,97410.69
2023-04-02T17:05:29.752Z,97407.06
2023-04-02T17:08:11.468Z,97412.50
2023-04-02T17:11:07.805Z,97409.03
2023-04-02T17:13:42.292Z,97424.75
2023-04-02T17:16:15.569Z,97424.75
2023-04-02T17:18:44.171Z,97424.91
2023-04-02T17:21:15.072Z,97426.00
2023-04-02T17:23:56.035Z,97439.25
2023-04-02T17:26:27.856Z,97441.19
2023-04-02T17:28:55.563Z,97441.91
2023-04-02T17:31:24.406Z,97445.50
2023-04-02T17:33:51.487Z,97443.84
2023-04-02T17:36:33.360Z,97451.78
2023-04-02T17:39:11.435Z,97465.00
2023-04-02T17:41:48.102Z,97465.97
2023-04-02T17:44:44.725Z,97464.19
2023-04-02T17:47:21.962Z,97475.59
2023-04-02T17:49:54.727Z,97480.88
2023-04-02T17:52:28.357Z,97491.47
2023-04-02T17:55:27.494Z,97493.41
2023-04-02T17:58:13.535Z,97505.69
2023-04-02T18:00:58.010Z,97505.09
2023-04-02T18:03:50.933Z,97508.31
2023-04-02T18:06:43.384Z,97515.56
2023-04-02T18:09:47.545Z,97522.66
2023-04-02T18:12:30.934Z,97528.19
2023-04-02T18:15:29.565Z,97536.00
2023-04-02T18:18:10.996Z,97538.66
2023-04-02T18:20:56.062Z,97546.72
2023-04-02T18:23:43.956Z,97544.06
2023-04-02T18:26:26.275Z,97555.50
2023-04-02T18:29:16.790Z,97572.19
2023-04-02T18:31:57.890Z,97579.31
2023-04-02T18:35:01.368Z,97577.75
2023-04-02T18:37:37.224Z,97593.66
2023-04-02T18:40:34.958Z,97597.97
2023-04-02T18:43:31.635Z,97594.47
2023-04-02T18:46:23.219Z,97605.91
2023-04-02T18:49:01.350Z,97612.28
2023-04-02T18:51:33.862Z,97613.97
2023-04-02T18:54:09.676Z,97622.03
2023-04-02T18:56:41.383Z,97621.22
2023-04-02T18:59:19.896Z,97630.03
2023-04-02T19:01:51.508Z,97635.34
2023-04-02T19:04:26.522Z,97644.97
2023-04-02T19:07:16.171Z,97659.75
2023-04-02T19:09:50.868Z,97650.97
2023-04-02T19:12:23.753Z,97657.91
2023-04-02T19:14:52.468Z,97653.84
2023-04-02T19:17:39.808Z,97664.81
2023-04-02T19:20:45.510Z,97679.00
2023-04-02T19:23:47.477Z,97677.34
2023-04-02T19:26:17.841Z,97686.38
2023-04-02T19:29:24.523Z,97691.66
2023-04-02T19:32:07.479Z,97699.47
2023-04-02T19:34:51.236Z,97700.56
2023-04-02T19:37:48.056Z,97701.69
2023-04-02T19:40:34.958Z,97712.25
2023-04-02T19:43:01.736Z,97709.75
2023-04-02T19:45:49.330Z,97711.56
2023-04-02T19:48:21.141Z,97715.03
2023-04-02T19:50:49.408Z,97719.50
2023-04-02T19:53:16.479Z,97719.63
2023-04-02T19:55:44.547Z,97726.72
2023-04-02T19:58:22.250Z,97730.22
2023-04-02T20:00:49.273Z,97738.28
2023-04-02T20:03:16.181Z,97738.41
2023-04-02T20:05:43.187Z,97733.50
2023-04-02T20:08:11.111Z,97742.03
2023-04-02T20:10:38.593Z,97751.91
2023-04-02T20:13:05.694Z,97755.50
2023-04-02T20:15:33.072Z,97755.50
2023-04-02T20:18:00.383Z,97759.97
2023-04-02T20:20:28.377Z,97764.41
2023-04-02T20:22:55.707Z,97771.50
2023-04-02T20:25:26.795Z,97775.00
2023-04-02T20:27:54.043Z,97772.34
2023-04-02T20:30:21.228Z,97775.84
2023-04-02T20:32:48.478Z,97773.72
2023-04-02T20:35:15.916Z,97779.56
2023-04-02T20:37:42.929Z,97784.16
2023-04-02T20:40:11.107Z,97789.44
2023-04-02T20:42:38.189Z,97796.41
2023-04-02T20:45:06.550Z,97800.88
2023-04-02T20:47:33.693Z,97806.28
2023-04-02T20:50:00.665Z,97803.63
2023-04-02T20:52:30.423Z,97804.59
2023-04-02T20:54:57.932Z,97821.31
2023-04-02T20:57:26.415Z,97821.44
2023-04-02T20:59:54.796Z,97823.25
2023-04-02T21:02:22.141Z,97820.75
2023-04-02T21:04:49.109Z,97827.03
2023-04-02T21:07:19.208Z,97827.69
2023-04-02T21:09:46.482Z,97825.91
2023-04-02T21:12:17.085Z,97828.69
2023-04-02T21:14:44.450Z,97823.41
2023-04-02T21:17:12.272Z,97834.00
2023-04-02T21:19:39.174Z,97827.16
2023-04-02T21:22:06.216Z,97837.84
2023-04-02T21:24:33.149Z,97829.22
2023-04-02T21:27:01.230Z,97832.56
2023-04-02T21:29:30.998Z,97840.50
2023-04-02T21:31:59.809Z,97837.97
2023-04-02T21:34:31.176Z,97836.19
2023-04-02T21:36:58.081Z,97829.22
2023-04-02T21:39:25.192Z,97833.78
2023-04-02T21:41:56.375Z,97832.13
2023-04-02T21:44:24.562Z,97835.47
2023-04-02T21:46:53.894Z,97840.75
2023-04-02T21:49:25.759Z,97839.22
2023-04-02T21:51:55.993Z,97840.16
2023-04-02T21:54:22.760Z,97844.63
2023-04-02T21:56:58.823Z,97851.72
2023-04-02T21:59:31.816Z,97841.13
2023-04-02T22:01:58.943Z,97849.19
2023-04-02T22:04:26.876Z,97854.34
2023-04-02T22:06:54.673Z,97858.81
2023-04-02T22:09:24.687Z,97850.88
2023-04-02T22:11:54.786Z,97859.06
2023-04-02T22:14:21.969Z,97856.53
2023-04-02T22:16:48.887Z,97862.66
2023-04-02T22:19:17.385Z,97862.81
2023-04-02T22:21:44.924Z,97871.56
2023-04-02T22:24:18.355Z,97874.22
2023-04-02T22:26:46.793Z,97882.84
2023-04-02T22:29:14.256Z,97876.28
2023-04-02T22:31:44.295Z,97883.25
2023-04-02T22:34:11.449Z,97883.81
2023-04-02T22:36:38.292Z,97885.75
2023-04-02T22:39:07.125Z,97894.66
2023-04-02T22:41:34.339Z,97897.41
2023-04-02T22:44:04.154Z,97886.13
2023-04-02T22:46:36.719Z,97890.59
2023-04-02T22:49:19.670Z,97884.47
2023-04-02T22:51:47.186Z,97888.78
2023-04-02T22:54:14.136Z,97887.22
2023-04-02T22:56:41.371Z,97884.47
2023-04-02T22:59:08.449Z,97891.53
2023-04-02T23:01:36.924Z,97881.09
2023-04-02T23:04:05.525Z,97878.31
2023-04-02T23:06:32.744Z,97882.78
2023-04-02T23:08:59.772Z,97879.28
2023-04-02T23:11:28.091Z,97875.22
2023-04-02T23:14:13.738Z,97886.38
2023-04-02T23:16:43.998Z,97882.19
2023-04-02T23:19:19.745Z,97884.13
2023-04-02T23:21:49.660Z,97891.09
2023-04-02T23:24:19.769Z,97884.25
2023-04-02T23:26:47.013Z,97880.63
2023-04-02T23:29:30.568Z,97874.50
2023-04-02T23:31:57.843Z,97880.63
2023-04-02T23:34:28.046Z,97880.03
2023-04-02T23:36:55.149Z,97879.91
2023-04-02T23:39:23.354Z,97883.41
2023-04-02T23:41:50.599Z,97883.41
2023-04-02T23:44:24.217Z,97881.59
2023-04-02T23:46:53.961Z,97878.38
2023-04-02T23:49:29.789Z,97879.22
2023-04-02T23:51:57.536Z,97872.13
2023-04-02T23:54:27.576Z,97873.78
2023-04-02T23:56:54.961Z,97871.16
2023-04-02T23:59:22.171Z,97865.16
